sensor_id;sensor_type;location;lat;lon;timestamp;P1;durP1;ratioP1;P2;durP2;ratioP2
3131;SDS011;62090;52.330;9.104;2022-09-29T00:02:15;14.90;;;12.43;;
3131;SDS011;62090;52.330;9.104;2022-09-29T00:04:45;14.30;;;12.73;;
3131;SDS011;62090;52.330;9.104;2022-09-29T00:07:14;15.27;;;12.90;;
3131;SDS011;62090;52.330;9.104;2022-09-29T00:09:44;19.30;;;14.43;;
3131;SDS011;62090;52.330;9.104;2022-09-29T00:12:14;17.30;;;12.73;;
3131;SDS011;62090;52.330;9.104;2022-09-29T00:14:46;15.67;;;13.37;;
3131;SDS011;62090;52.330;9.104;2022-09-29T00:17:16;16.67;;;13.33;;
3131;SDS011;62090;52.330;9.104;2022-09-29T00:19:46;14.40;;;12.40;;
3131;SDS011;62090;52.330;9.104;2022-09-29T00:22:16;26.53;;;13.20;;
3131;SDS011;62090;52.330;9.104;2022-09-29T00:24:46;18.53;;;13.57;;
3131;SDS011;62090;52.330;9.104;2022-09-29T00:27:16;19.03;;;13.50;;
3131;SDS011;62090;52.330;9.104;2022-09-29T00:29:49;17.97;;;14.03;;
3131;SDS011;62090;52.330;9.104;2022-09-29T00:32:19;20.63;;;15.97;;
3131;SDS011;62090;52.330;9.104;2022-09-29T00:34:49;18.67;;;14.37;;
3131;SDS011;62090;52.330;9.104;2022-09-29T00:37:19;19.60;;;16.10;;
3131;SDS011;62090;52.330;9.104;2022-09-29T00:39:49;19.90;;;15.20;;
3131;SDS011;62090;52.330;9.104;2022-09-29T00:42:19;18.93;;;14.80;;
3131;SDS011;62090;52.330;9.104;2022-09-29T00:45:04;19.63;;;15.27;;
3131;SDS011;62090;52.330;9.104;2022-09-29T00:47:40;21.87;;;16.37;;
3131;SDS011;62090;52.330;9.104;2022-09-29T00:50:16;22.13;;;16.00;;
3131;SDS011;62090;52.330;9.104;2022-09-29T00:52:51;19.77;;;16.37;;
3131;SDS011;62090;52.330;9.104;2022-09-29T00:55:25;20.83;;;16.23;;
3131;SDS011;62090;52.330;9.104;2022-09-29T00:58:00;20.70;;;16.93;;
3131;SDS011;62090;52.330;9.104;2022-09-29T01:00:36;21.33;;;16.97;;
3131;SDS011;62090;52.330;9.104;2022-09-29T01:03:07;24.90;;;18.70;;
3131;SDS011;62090;52.330;9.104;2022-09-29T01:05:46;22.73;;;17.80;;
3131;SDS011;62090;52.330;9.104;2022-09-29T01:08:20;21.53;;;17.40;;
3131;SDS011;62090;52.330;9.104;2022-09-29T01:10:55;22.30;;;17.17;;
3131;SDS011;62090;52.330;9.104;2022-09-29T01:13:25;22.10;;;17.20;;
3131;SDS011;62090;52.330;9.104;2022-09-29T01:15:59;22.43;;;18.70;;
3131;SDS011;62090;52.330;9.104;2022-09-29T01:18:29;25.47;;;19.13;;
3131;SDS011;62090;52.330;9.104;2022-09-29T01:21:03;24.80;;;19.33;;
3131;SDS011;62090;52.330;9.104;2022-09-29T01:23:45;24.80;;;21.03;;
3131;SDS011;62090;52.330;9.104;2022-09-29T01:26:33;31.83;;;20.23;;
3131;SDS011;62090;52.330;9.104;2022-09-29T01:29:32;26.97;;;22.30;;
3131;SDS011;62090;52.330;9.104;2022-09-29T01:32:26;26.73;;;22.13;;
3131;SDS011;62090;52.330;9.104;2022-09-29T01:35:03;24.90;;;21.00;;
3131;SDS011;62090;52.330;9.104;2022-09-29T01:37:42;29.00;;;21.90;;
3131;SDS011;62090;52.330;9.104;2022-09-29T01:40:24;29.40;;;21.37;;
3131;SDS011;62090;52.330;9.104;2022-09-29T01:42:59;29.40;;;23.10;;
3131;SDS011;62090;52.330;9.104;2022-09-29T01:45:33;27.20;;;21.97;;
3131;SDS011;62090;52.330;9.104;2022-09-29T01:48:10;26.40;;;21.57;;
3131;SDS011;62090;52.330;9.104;2022-09-29T01:50:45;28.30;;;23.77;;
3131;SDS011;62090;52.330;9.104;2022-09-29T01:53:19;30.80;;;23.80;;
3131;SDS011;62090;52.330;9.104;2022-09-29T01:55:55;30.97;;;24.00;;
3131;SDS011;62090;52.330;9.104;2022-09-29T01:58:31;27.60;;;22.90;;
3131;SDS011;62090;52.330;9.104;2022-09-29T02:01:08;29.87;;;24.43;;
3131;SDS011;62090;52.330;9.104;2022-09-29T02:03:44;32.83;;;24.83;;
3131;SDS011;62090;52.330;9.104;2022-09-29T02:06:19;31.20;;;25.33;;
3131;SDS011;62090;52.330;9.104;2022-09-29T02:08:52;30.90;;;24.83;;
3131;SDS011;62090;52.330;9.104;2022-09-29T02:11:23;30.93;;;25.03;;
3131;SDS011;62090;52.330;9.104;2022-09-29T02:13:56;28.13;;;23.90;;
3131;SDS011;62090;52.330;9.104;2022-09-29T02:16:30;29.80;;;24.23;;
3131;SDS011;62090;52.330;9.104;2022-09-29T02:19:07;30.87;;;25.40;;
3131;SDS011;62090;52.330;9.104;2022-09-29T02:21:43;33.00;;;25.43;;
3131;SDS011;62090;52.330;9.104;2022-09-29T02:24:13;35.07;;;25.53;;
3131;SDS011;62090;52.330;9.104;2022-09-29T02:26:43;31.83;;;25.27;;
3131;SDS011;62090;52.330;9.104;2022-09-29T02:29:14;39.40;;;27.63;;
3131;SDS011;62090;52.330;9.104;2022-09-29T02:31:45;30.97;;;25.70;;
3131;SDS011;62090;52.330;9.104;2022-09-29T02:34:18;30.83;;;24.87;;
3131;SDS011;62090;52.330;9.104;2022-09-29T02:36:53;36.33;;;27.10;;
3131;SDS011;62090;52.330;9.104;2022-09-29T02:39:30;31.53;;;25.20;;
3131;SDS011;62090;52.330;9.104;2022-09-29T02:42:12;32.37;;;25.90;;
3131;SDS011;62090;52.330;9.104;2022-09-29T02:44:51;30.90;;;25.43;;
3131;SDS011;62090;52.330;9.104;2022-09-29T02:47:37;32.53;;;25.50;;
3131;SDS011;62090;52.330;9.104;2022-09-29T02:50:39;29.97;;;24.00;;
3131;SDS011;62090;52.330;9.104;2022-09-29T02:53:22;36.03;;;26.57;;
3131;SDS011;62090;52.330;9.104;2022-09-29T02:56:01;40.20;;;26.03;;
3131;SDS011;62090;52.330;9.104;2022-09-29T02:58:38;33.13;;;25.77;;
3131;SDS011;62090;52.330;9.104;2022-09-29T03:01:14;34.33;;;26.93;;
3131;SDS011;62090;52.330;9.104;2022-09-29T03:03:44;30.50;;;24.70;;
3131;SDS011;62090;52.330;9.104;2022-09-29T03:06:16;36.10;;;26.20;;
3131;SDS011;62090;52.330;9.104;2022-09-29T03:08:48;32.20;;;24.20;;
3131;SDS011;62090;52.330;9.104;2022-09-29T03:11:17;31.87;;;25.87;;
3131;SDS011;62090;52.330;9.104;2022-09-29T03:13:47;32.10;;;25.43;;
3131;SDS011;62090;52.330;9.104;2022-09-29T03:16:17;35.33;;;23.80;;
3131;SDS011;62090;52.330;9.104;2022-09-29T03:18:47;30.70;;;23.83;;
3131;SDS011;62090;52.330;9.104;2022-09-29T03:21:19;29.53;;;24.27;;
3131;SDS011;62090;52.330;9.104;2022-09-29T03:23:49;29.57;;;23.67;;
3131;SDS011;62090;52.330;9.104;2022-09-29T03:26:23;32.37;;;24.70;;
3131;SDS011;62090;52.330;9.104;2022-09-29T03:28:53;35.50;;;27.07;;
3131;SDS011;62090;52.330;9.104;2022-09-29T03:31:22;32.83;;;25.30;;
3131;SDS011;62090;52.330;9.104;2022-09-29T03:33:52;34.43;;;24.97;;
3131;SDS011;62090;52.330;9.104;2022-09-29T03:36:25;34.57;;;27.00;;
3131;SDS011;62090;52.330;9.104;2022-09-29T03:38:56;34.70;;;27.60;;
3131;SDS011;62090;52.330;9.104;2022-09-29T03:41:26;33.63;;;26.33;;
3131;SDS011;62090;52.330;9.104;2022-09-29T03:43:55;36.97;;;28.60;;
3131;SDS011;62090;52.330;9.104;2022-09-29T03:46:25;34.87;;;27.20;;
3131;SDS011;62090;52.330;9.104;2022-09-29T03:48:55;35.93;;;26.93;;
3131;SDS011;62090;52.330;9.104;2022-09-29T03:51:27;35.07;;;26.93;;
3131;SDS011;62090;52.330;9.104;2022-09-29T03:53:57;32.50;;;26.43;;
3131;SDS011;62090;52.330;9.104;2022-09-29T03:56:27;29.97;;;25.67;;
3131;SDS011;62090;52.330;9.104;2022-09-29T03:58:56;31.07;;;25.30;;
3131;SDS011;62090;52.330;9.104;2022-09-29T04:01:26;34.73;;;25.80;;
3131;SDS011;62090;52.330;9.104;2022-09-29T04:03:56;30.17;;;24.23;;
3131;SDS011;62090;52.330;9.104;2022-09-29T04:06:29;31.33;;;23.10;;
3131;SDS011;62090;52.330;9.104;2022-09-29T04:08:59;30.83;;;25.20;;
3131;SDS011;62090;52.330;9.104;2022-09-29T04:11:28;31.23;;;25.03;;
3131;SDS011;62090;52.330;9.104;2022-09-29T04:13:58;29.00;;;24.90;;
3131;SDS011;62090;52.330;9.104;2022-09-29T04:16:28;35.47;;;26.80;;
3131;SDS011;62090;52.330;9.104;2022-09-29T04:18:58;31.90;;;25.20;;
3131;SDS011;62090;52.330;9.104;2022-09-29T04:21:30;31.30;;;26.03;;
3131;SDS011;62090;52.330;9.104;2022-09-29T04:24:00;29.07;;;25.23;;
3131;SDS011;62090;52.330;9.104;2022-09-29T04:26:30;39.07;;;25.60;;
3131;SDS011;62090;52.330;9.104;2022-09-29T04:29:00;34.13;;;24.30;;
3131;SDS011;62090;52.330;9.104;2022-09-29T04:31:30;32.03;;;25.00;;
3131;SDS011;62090;52.330;9.104;2022-09-29T04:34:00;31.53;;;24.63;;
3131;SDS011;62090;52.330;9.104;2022-09-29T04:36:32;29.97;;;23.70;;
3131;SDS011;62090;52.330;9.104;2022-09-29T04:39:02;34.20;;;25.33;;
3131;SDS011;62090;52.330;9.104;2022-09-29T04:41:32;31.57;;;25.40;;
3131;SDS011;62090;52.330;9.104;2022-09-29T04:44:05;33.00;;;25.67;;
3131;SDS011;62090;52.330;9.104;2022-09-29T04:46:34;33.43;;;25.53;;
3131;SDS011;62090;52.330;9.104;2022-09-29T04:49:04;31.80;;;26.20;;
3131;SDS011;62090;52.330;9.104;2022-09-29T04:51:37;34.13;;;25.57;;
3131;SDS011;62090;52.330;9.104;2022-09-29T04:54:07;31.47;;;26.63;;
3131;SDS011;62090;52.330;9.104;2022-09-29T04:56:37;34.10;;;25.70;;
3131;SDS011;62090;52.330;9.104;2022-09-29T04:59:06;39.03;;;27.03;;
3131;SDS011;62090;52.330;9.104;2022-09-29T05:01:38;36.40;;;26.70;;
3131;SDS011;62090;52.330;9.104;2022-09-29T05:04:08;35.13;;;25.90;;
3131;SDS011;62090;52.330;9.104;2022-09-29T05:06:41;37.10;;;26.53;;
3131;SDS011;62090;52.330;9.104;2022-09-29T05:09:11;35.73;;;27.17;;
3131;SDS011;62090;52.330;9.104;2022-09-29T05:11:41;34.87;;;26.63;;
3131;SDS011;62090;52.330;9.104;2022-09-29T05:14:10;36.13;;;26.83;;
3131;SDS011;62090;52.330;9.104;2022-09-29T05:16:40;35.93;;;26.77;;
3131;SDS011;62090;52.330;9.104;2022-09-29T05:19:10;37.60;;;27.37;;
3131;SDS011;62090;52.330;9.104;2022-09-29T05:21:43;38.23;;;27.73;;
3131;SDS011;62090;52.330;9.104;2022-09-29T05:24:12;38.50;;;26.27;;
3131;SDS011;62090;52.330;9.104;2022-09-29T05:26:45;39.70;;;29.23;;
3131;SDS011;62090;52.330;9.104;2022-09-29T05:29:15;32.13;;;26.20;;
3131;SDS011;62090;52.330;9.104;2022-09-29T05:31:45;41.23;;;28.43;;
3131;SDS011;62090;52.330;9.104;2022-09-29T05:34:15;38.87;;;28.50;;
3131;SDS011;62090;52.330;9.104;2022-09-29T05:36:47;35.43;;;26.87;;
3131;SDS011;62090;52.330;9.104;2022-09-29T05:39:17;36.60;;;28.10;;
3131;SDS011;62090;52.330;9.104;2022-09-29T05:41:47;38.67;;;28.47;;
3131;SDS011;62090;52.330;9.104;2022-09-29T05:44:23;35.03;;;26.53;;
3131;SDS011;62090;52.330;9.104;2022-09-29T05:46:53;37.73;;;26.70;;
3131;SDS011;62090;52.330;9.104;2022-09-29T05:49:23;40.57;;;27.03;;
3131;SDS011;62090;52.330;9.104;2022-09-29T05:51:55;34.80;;;27.27;;
3131;SDS011;62090;52.330;9.104;2022-09-29T05:54:25;35.60;;;26.63;;
3131;SDS011;62090;52.330;9.104;2022-09-29T05:56:55;35.37;;;28.07;;
3131;SDS011;62090;52.330;9.104;2022-09-29T05:59:25;41.60;;;30.37;;
3131;SDS011;62090;52.330;9.104;2022-09-29T06:01:55;42.90;;;28.20;;
3131;SDS011;62090;52.330;9.104;2022-09-29T06:04:25;41.93;;;29.60;;
3131;SDS011;62090;52.330;9.104;2022-09-29T06:06:57;38.63;;;28.77;;
3131;SDS011;62090;52.330;9.104;2022-09-29T06:09:28;39.97;;;27.87;;
3131;SDS011;62090;52.330;9.104;2022-09-29T06:11:59;37.30;;;26.70;;
3131;SDS011;62090;52.330;9.104;2022-09-29T06:14:30;37.13;;;27.50;;
3131;SDS011;62090;52.330;9.104;2022-09-29T06:17:01;41.30;;;28.90;;
3131;SDS011;62090;52.330;9.104;2022-09-29T06:19:32;39.00;;;29.47;;
3131;SDS011;62090;52.330;9.104;2022-09-29T06:22:04;42.10;;;30.40;;
3131;SDS011;62090;52.330;9.104;2022-09-29T06:24:34;39.73;;;28.70;;
3131;SDS011;62090;52.330;9.104;2022-09-29T06:27:05;41.37;;;30.03;;
3131;SDS011;62090;52.330;9.104;2022-09-29T06:29:35;41.33;;;29.03;;
3131;SDS011;62090;52.330;9.104;2022-09-29T06:32:05;46.03;;;29.50;;
3131;SDS011;62090;52.330;9.104;2022-09-29T06:34:35;37.23;;;28.57;;
3131;SDS011;62090;52.330;9.104;2022-09-29T06:37:29;44.57;;;31.47;;
3131;SDS011;62090;52.330;9.104;2022-09-29T06:40:05;45.37;;;30.90;;
3131;SDS011;62090;52.330;9.104;2022-09-29T06:42:38;44.70;;;30.10;;
3131;SDS011;62090;52.330;9.104;2022-09-29T06:45:09;47.87;;;32.57;;
3131;SDS011;62090;52.330;9.104;2022-09-29T06:47:39;48.77;;;32.13;;
3131;SDS011;62090;52.330;9.104;2022-09-29T06:50:09;47.57;;;31.07;;
3131;SDS011;62090;52.330;9.104;2022-09-29T06:52:52;39.83;;;29.77;;
3131;SDS011;62090;52.330;9.104;2022-09-29T06:55:30;53.57;;;31.33;;
3131;SDS011;62090;52.330;9.104;2022-09-29T06:58:00;43.93;;;29.73;;
3131;SDS011;62090;52.330;9.104;2022-09-29T07:00:31;45.97;;;32.30;;
3131;SDS011;62090;52.330;9.104;2022-09-29T07:03:02;48.70;;;33.23;;
3131;SDS011;62090;52.330;9.104;2022-09-29T07:05:33;48.13;;;32.30;;
3131;SDS011;62090;52.330;9.104;2022-09-29T07:08:07;50.33;;;33.60;;
3131;SDS011;62090;52.330;9.104;2022-09-29T07:10:37;47.70;;;34.13;;
3131;SDS011;62090;52.330;9.104;2022-09-29T07:13:07;49.37;;;31.80;;
3131;SDS011;62090;52.330;9.104;2022-09-29T07:15:38;52.27;;;32.80;;
3131;SDS011;62090;52.330;9.104;2022-09-29T07:18:09;46.60;;;32.07;;
3131;SDS011;62090;52.330;9.104;2022-09-29T07:20:39;44.53;;;31.00;;
3131;SDS011;62090;52.330;9.104;2022-09-29T07:23:12;46.80;;;30.93;;
3131;SDS011;62090;52.330;9.104;2022-09-29T07:25:44;46.77;;;33.20;;
3131;SDS011;62090;52.330;9.104;2022-09-29T07:28:18;45.17;;;29.03;;
3131;SDS011;62090;52.330;9.104;2022-09-29T07:30:59;45.73;;;29.67;;
3131;SDS011;62090;52.330;9.104;2022-09-29T07:33:41;48.10;;;30.50;;
3131;SDS011;62090;52.330;9.104;2022-09-29T07:36:12;46.90;;;30.53;;
3131;SDS011;62090;52.330;9.104;2022-09-29T07:38:47;43.20;;;29.90;;
3131;SDS011;62090;52.330;9.104;2022-09-29T07:41:19;45.63;;;29.30;;
3131;SDS011;62090;52.330;9.104;2022-09-29T07:43:51;51.43;;;29.57;;
3131;SDS011;62090;52.330;9.104;2022-09-29T07:46:22;42.40;;;29.00;;
3131;SDS011;62090;52.330;9.104;2022-09-29T07:48:52;45.07;;;29.40;;
3131;SDS011;62090;52.330;9.104;2022-09-29T07:51:22;48.33;;;30.93;;
3131;SDS011;62090;52.330;9.104;2022-09-29T07:53:55;43.23;;;29.20;;
3131;SDS011;62090;52.330;9.104;2022-09-29T07:56:30;43.50;;;28.90;;
3131;SDS011;62090;52.330;9.104;2022-09-29T07:59:00;39.33;;;28.30;;
3131;SDS011;62090;52.330;9.104;2022-09-29T08:01:34;39.40;;;27.30;;
3131;SDS011;62090;52.330;9.104;2022-09-29T08:04:06;40.77;;;28.70;;
3131;SDS011;62090;52.330;9.104;2022-09-29T08:06:39;39.57;;;26.87;;
3131;SDS011;62090;52.330;9.104;2022-09-29T08:09:13;34.07;;;25.10;;
3131;SDS011;62090;52.330;9.104;2022-09-29T08:11:43;39.93;;;27.40;;
3131;SDS011;62090;52.330;9.104;2022-09-29T08:14:19;37.60;;;26.80;;
3131;SDS011;62090;52.330;9.104;2022-09-29T08:16:49;35.60;;;25.90;;
3131;SDS011;62090;52.330;9.104;2022-09-29T08:21:56;34.47;;;26.67;;
3131;SDS011;62090;52.330;9.104;2022-09-29T08:24:29;39.97;;;27.33;;
3131;SDS011;62090;52.330;9.104;2022-09-29T08:27:01;35.90;;;24.40;;
3131;SDS011;62090;52.330;9.104;2022-09-29T08:29:44;38.33;;;25.50;;
3131;SDS011;62090;52.330;9.104;2022-09-29T08:32:14;31.03;;;23.60;;
3131;SDS011;62090;52.330;9.104;2022-09-29T08:34:45;33.17;;;24.87;;
3131;SDS011;62090;52.330;9.104;2022-09-29T08:37:16;30.90;;;24.90;;
3131;SDS011;62090;52.330;9.104;2022-09-29T08:39:48;29.43;;;23.07;;
3131;SDS011;62090;52.330;9.104;2022-09-29T08:42:21;28.93;;;20.67;;
3131;SDS011;62090;52.330;9.104;2022-09-29T08:45:13;27.53;;;20.97;;
3131;SDS011;62090;52.330;9.104;2022-09-29T08:47:50;23.43;;;19.33;;
3131;SDS011;62090;52.330;9.104;2022-09-29T08:50:26;30.83;;;18.10;;
3131;SDS011;62090;52.330;9.104;2022-09-29T08:53:01;24.30;;;18.53;;
3131;SDS011;62090;52.330;9.104;2022-09-29T08:55:54;29.53;;;20.20;;
3131;SDS011;62090;52.330;9.104;2022-09-29T08:58:25;25.80;;;18.53;;
3131;SDS011;62090;52.330;9.104;2022-09-29T09:01:03;32.53;;;19.73;;
3131;SDS011;62090;52.330;9.104;2022-09-29T09:03:47;23.60;;;18.30;;
3131;SDS011;62090;52.330;9.104;2022-09-29T09:06:38;23.17;;;18.37;;
3131;SDS011;62090;52.330;9.104;2022-09-29T09:09:34;26.67;;;17.13;;
3131;SDS011;62090;52.330;9.104;2022-09-29T09:12:26;19.63;;;15.73;;
3131;SDS011;62090;52.330;9.104;2022-09-29T09:21:26;17.83;;;15.17;;
3131;SDS011;62090;52.330;9.104;2022-09-29T09:24:03;21.50;;;14.40;;
3131;SDS011;62090;52.330;9.104;2022-09-29T09:26:41;19.90;;;14.40;;
3131;SDS011;62090;52.330;9.104;2022-09-29T09:29:17;18.00;;;14.67;;
3131;SDS011;62090;52.330;9.104;2022-09-29T09:31:55;18.10;;;14.63;;
3131;SDS011;62090;52.330;9.104;2022-09-29T09:34:29;15.90;;;13.00;;
3131;SDS011;62090;52.330;9.104;2022-09-29T09:37:12;18.97;;;10.97;;
3131;SDS011;62090;52.330;9.104;2022-09-29T09:39:48;14.50;;;11.47;;
3131;SDS011;62090;52.330;9.104;2022-09-29T09:42:26;16.73;;;11.17;;
3131;SDS011;62090;52.330;9.104;2022-09-29T09:45:05;14.67;;;11.97;;
3131;SDS011;62090;52.330;9.104;2022-09-29T09:47:45;14.80;;;10.47;;
3131;SDS011;62090;52.330;9.104;2022-09-29T09:50:19;13.13;;;10.97;;
3131;SDS011;62090;52.330;9.104;2022-09-29T09:52:51;17.00;;;11.87;;
3131;SDS011;62090;52.330;9.104;2022-09-29T09:55:24;15.70;;;11.60;;
3131;SDS011;62090;52.330;9.104;2022-09-29T09:58:05;15.00;;;11.67;;
3131;SDS011;62090;52.330;9.104;2022-09-29T10:00:48;14.70;;;12.10;;
3131;SDS011;62090;52.330;9.104;2022-09-29T10:03:24;15.00;;;10.97;;
3131;SDS011;62090;52.330;9.104;2022-09-29T10:05:57;11.90;;;9.87;;
3131;SDS011;62090;52.330;9.104;2022-09-29T10:08:27;17.63;;;10.40;;
3131;SDS011;62090;52.330;9.104;2022-09-29T10:11:11;9.30;;;7.40;;
3131;SDS011;62090;52.330;9.104;2022-09-29T10:13:56;13.90;;;7.40;;
3131;SDS011;62090;52.330;9.104;2022-09-29T10:16:34;9.07;;;7.60;;
3131;SDS011;62090;52.330;9.104;2022-09-29T10:19:08;9.43;;;8.27;;
3131;SDS011;62090;52.330;9.104;2022-09-29T10:21:39;10.97;;;9.70;;
3131;SDS011;62090;52.330;9.104;2022-09-29T10:24:19;14.83;;;9.60;;
3131;SDS011;62090;52.330;9.104;2022-09-29T10:26:54;15.60;;;9.90;;
3131;SDS011;62090;52.330;9.104;2022-09-29T10:29:28;9.90;;;8.43;;
3131;SDS011;62090;52.330;9.104;2022-09-29T10:32:06;11.53;;;9.27;;
3131;SDS011;62090;52.330;9.104;2022-09-29T10:34:40;15.10;;;9.50;;
3131;SDS011;62090;52.330;9.104;2022-09-29T10:37:18;16.00;;;9.57;;
3131;SDS011;62090;52.330;9.104;2022-09-29T10:40:00;14.07;;;9.75;;
3131;SDS011;62090;52.330;9.104;2022-09-29T10:42:34;11.33;;;9.20;;
3131;SDS011;62090;52.330;9.104;2022-09-29T10:45:10;11.63;;;8.13;;
3131;SDS011;62090;52.330;9.104;2022-09-29T10:47:46;12.00;;;8.70;;
3131;SDS011;62090;52.330;9.104;2022-09-29T10:50:19;14.17;;;8.97;;
3131;SDS011;62090;52.330;9.104;2022-09-29T10:52:53;10.87;;;8.60;;
3131;SDS011;62090;52.330;9.104;2022-09-29T10:55:26;9.17;;;6.60;;
3131;SDS011;62090;52.330;9.104;2022-09-29T10:57:58;7.47;;;5.97;;
3131;SDS011;62090;52.330;9.104;2022-09-29T11:00:32;8.20;;;6.80;;
3131;SDS011;62090;52.330;9.104;2022-09-29T11:03:14;9.87;;;6.03;;
3131;SDS011;62090;52.330;9.104;2022-09-29T11:05:50;7.53;;;6.83;;
3131;SDS011;62090;52.330;9.104;2022-09-29T11:08:23;11.50;;;8.63;;
3131;SDS011;62090;52.330;9.104;2022-09-29T11:11:01;11.77;;;9.70;;
3131;SDS011;62090;52.330;9.104;2022-09-29T11:13:35;12.00;;;7.50;;
3131;SDS011;62090;52.330;9.104;2022-09-29T11:16:12;14.23;;;6.33;;
3131;SDS011;62090;52.330;9.104;2022-09-29T11:18:47;7.00;;;5.90;;
3131;SDS011;62090;52.330;9.104;2022-09-29T11:21:34;9.77;;;6.90;;
3131;SDS011;62090;52.330;9.104;2022-09-29T11:24:29;7.03;;;4.50;;
3131;SDS011;62090;52.330;9.104;2022-09-29T11:27:14;12.10;;;5.13;;
3131;SDS011;62090;52.330;9.104;2022-09-29T11:29:57;8.87;;;4.70;;
3131;SDS011;62090;52.330;9.104;2022-09-29T11:32:41;60.00;;;35.23;;
3131;SDS011;62090;52.330;9.104;2022-09-29T11:35:28;9.63;;;5.67;;
3131;SDS011;62090;52.330;9.104;2022-09-29T11:38:09;5.90;;;4.70;;
3131;SDS011;62090;52.330;9.104;2022-09-29T11:41:08;8.50;;;5.90;;
3131;SDS011;62090;52.330;9.104;2022-09-29T11:43:53;19.83;;;11.53;;
3131;SDS011;62090;52.330;9.104;2022-09-29T11:46:33;6.87;;;4.90;;
3131;SDS011;62090;52.330;9.104;2022-09-29T11:49:21;9.30;;;4.97;;
3131;SDS011;62090;52.330;9.104;2022-09-29T11:52:16;4.83;;;4.10;;
3131;SDS011;62090;52.330;9.104;2022-09-29T11:55:04;13.00;;;7.10;;
3131;SDS011;62090;52.330;9.104;2022-09-29T11:57:49;7.40;;;6.27;;
3131;SDS011;62090;52.330;9.104;2022-09-29T12:00:35;8.40;;;5.00;;
3131;SDS011;62090;52.330;9.104;2022-09-29T12:03:18;6.07;;;4.37;;
3131;SDS011;62090;52.330;9.104;2022-09-29T12:05:58;8.60;;;6.43;;
3131;SDS011;62090;52.330;9.104;2022-09-29T12:08:48;13.73;;;11.40;;
3131;SDS011;62090;52.330;9.104;2022-09-29T12:11:29;12.80;;;7.50;;
3131;SDS011;62090;52.330;9.104;2022-09-29T12:14:30;8.20;;;5.83;;
3131;SDS011;62090;52.330;9.104;2022-09-29T12:17:08;8.93;;;6.23;;
3131;SDS011;62090;52.330;9.104;2022-09-29T12:19:42;6.17;;;5.43;;
3131;SDS011;62090;52.330;9.104;2022-09-29T12:22:16;6.50;;;4.10;;
3131;SDS011;62090;52.330;9.104;2022-09-29T12:24:52;8.90;;;7.23;;
3131;SDS011;62090;52.330;9.104;2022-09-29T12:27:25;9.70;;;6.00;;
3131;SDS011;62090;52.330;9.104;2022-09-29T12:30:01;7.97;;;4.80;;
3131;SDS011;62090;52.330;9.104;2022-09-29T12:32:36;6.90;;;4.50;;
3131;SDS011;62090;52.330;9.104;2022-09-29T12:35:10;7.33;;;4.30;;
3131;SDS011;62090;52.330;9.104;2022-09-29T12:37:46;6.87;;;4.00;;
3131;SDS011;62090;52.330;9.104;2022-09-29T12:40:24;8.70;;;4.27;;
3131;SDS011;62090;52.330;9.104;2022-09-29T12:43:01;6.60;;;3.20;;
3131;SDS011;62090;52.330;9.104;2022-09-29T12:45:40;5.00;;;3.90;;
3131;SDS011;62090;52.330;9.104;2022-09-29T12:48:18;7.60;;;4.50;;
3131;SDS011;62090;52.330;9.104;2022-09-29T12:50:56;6.67;;;4.17;;
3131;SDS011;62090;52.330;9.104;2022-09-29T12:53:31;4.73;;;3.87;;
3131;SDS011;62090;52.330;9.104;2022-09-29T12:56:10;6.60;;;4.70;;
3131;SDS011;62090;52.330;9.104;2022-09-29T12:58:51;5.30;;;4.47;;
3131;SDS011;62090;52.330;9.104;2022-09-29T13:01:26;6.37;;;3.73;;
3131;SDS011;62090;52.330;9.104;2022-09-29T13:07:28;5.03;;;3.93;;
3131;SDS011;62090;52.330;9.104;2022-09-29T13:10:36;5.30;;;3.80;;
3131;SDS011;62090;52.330;9.104;2022-09-29T13:13:25;7.37;;;4.17;;
3131;SDS011;62090;52.330;9.104;2022-09-29T13:16:33;8.37;;;3.70;;
3131;SDS011;62090;52.330;9.104;2022-09-29T13:22:39;4.40;;;2.80;;
3131;SDS011;62090;52.330;9.104;2022-09-29T13:25:23;3.50;;;2.13;;
3131;SDS011;62090;52.330;9.104;2022-09-29T13:28:02;3.50;;;1.60;;
3131;SDS011;62090;52.330;9.104;2022-09-29T13:30:48;2.67;;;2.10;;
3131;SDS011;62090;52.330;9.104;2022-09-29T13:33:20;8.67;;;2.47;;
3131;SDS011;62090;52.330;9.104;2022-09-29T13:35:52;12.30;;;2.50;;
3131;SDS011;62090;52.330;9.104;2022-09-29T13:38:23;5.10;;;2.93;;
3131;SDS011;62090;52.330;9.104;2022-09-29T13:41:08;12.87;;;3.70;;
3131;SDS011;62090;52.330;9.104;2022-09-29T13:46:40;4.50;;;2.97;;
3131;SDS011;62090;52.330;9.104;2022-09-29T13:49:15;3.60;;;2.47;;
3131;SDS011;62090;52.330;9.104;2022-09-29T13:51:56;3.23;;;1.93;;
3131;SDS011;62090;52.330;9.104;2022-09-29T14:05:56;1.90;;;1.40;;
3131;SDS011;62090;52.330;9.104;2022-09-29T14:08:57;2.90;;;1.43;;
3131;SDS011;62090;52.330;9.104;2022-09-29T14:11:32;6.33;;;1.30;;
3131;SDS011;62090;52.330;9.104;2022-09-29T14:14:05;1.83;;;1.40;;
3131;SDS011;62090;52.330;9.104;2022-09-29T14:16:42;3.87;;;1.40;;
3131;SDS011;62090;52.330;9.104;2022-09-29T14:19:33;2.07;;;1.33;;
3131;SDS011;62090;52.330;9.104;2022-09-29T14:25:23;4.80;;;1.70;;
3131;SDS011;62090;52.330;9.104;2022-09-29T14:28:02;1.93;;;1.47;;
3131;SDS011;62090;52.330;9.104;2022-09-29T14:30:41;5.40;;;1.83;;
3131;SDS011;62090;52.330;9.104;2022-09-29T14:33:18;15.20;;;2.73;;
3131;SDS011;62090;52.330;9.104;2022-09-29T14:36:00;5.83;;;1.67;;
3131;SDS011;62090;52.330;9.104;2022-09-29T14:38:33;6.57;;;2.07;;
3131;SDS011;62090;52.330;9.104;2022-09-29T14:41:20;6.95;;;2.08;;
3131;SDS011;62090;52.330;9.104;2022-09-29T14:43:53;2.60;;;1.90;;
3131;SDS011;62090;52.330;9.104;2022-09-29T14:46:31;4.23;;;1.90;;
3131;SDS011;62090;52.330;9.104;2022-09-29T14:49:45;8.20;;;2.90;;
3131;SDS011;62090;52.330;9.104;2022-09-29T14:52:48;4.27;;;1.77;;
3131;SDS011;62090;52.330;9.104;2022-09-29T14:55:30;4.27;;;2.10;;
3131;SDS011;62090;52.330;9.104;2022-09-29T14:58:16;2.67;;;1.60;;
3131;SDS011;62090;52.330;9.104;2022-09-29T15:00:58;4.13;;;1.87;;
3131;SDS011;62090;52.330;9.104;2022-09-29T15:03:38;2.13;;;1.47;;
3131;SDS011;62090;52.330;9.104;2022-09-29T15:06:14;8.70;;;2.43;;
3131;SDS011;62090;52.330;9.104;2022-09-29T15:08:54;5.83;;;1.77;;
3131;SDS011;62090;52.330;9.104;2022-09-29T15:11:28;1.97;;;1.50;;
3131;SDS011;62090;52.330;9.104;2022-09-29T15:14:16;2.13;;;1.80;;
3131;SDS011;62090;52.330;9.104;2022-09-29T15:17:01;3.50;;;1.60;;
3131;SDS011;62090;52.330;9.104;2022-09-29T15:19:43;3.17;;;1.40;;
3131;SDS011;62090;52.330;9.104;2022-09-29T15:22:33;3.30;;;1.10;;
3131;SDS011;62090;52.330;9.104;2022-09-29T15:25:27;2.10;;;1.50;;
3131;SDS011;62090;52.330;9.104;2022-09-29T15:28:00;2.93;;;1.00;;
3131;SDS011;62090;52.330;9.104;2022-09-29T15:30:33;2.53;;;1.00;;
3131;SDS011;62090;52.330;9.104;2022-09-29T15:33:06;2.10;;;1.10;;
3131;SDS011;62090;52.330;9.104;2022-09-29T15:35:45;2.00;;;1.30;;
3131;SDS011;62090;52.330;9.104;2022-09-29T15:38:26;2.00;;;0.90;;
3131;SDS011;62090;52.330;9.104;2022-09-29T15:41:13;4.23;;;1.00;;
3131;SDS011;62090;52.330;9.104;2022-09-29T15:43:51;3.73;;;1.80;;
3131;SDS011;62090;52.330;9.104;2022-09-29T15:46:25;3.87;;;1.47;;
3131;SDS011;62090;52.330;9.104;2022-09-29T15:49:06;4.30;;;1.33;;
3131;SDS011;62090;52.330;9.104;2022-09-29T15:51:42;2.60;;;1.20;;
3131;SDS011;62090;52.330;9.104;2022-09-29T15:54:14;9.63;;;0.90;;
3131;SDS011;62090;52.330;9.104;2022-09-29T15:56:48;3.83;;;1.43;;
3131;SDS011;62090;52.330;9.104;2022-09-29T15:59:37;2.33;;;1.20;;
3131;SDS011;62090;52.330;9.104;2022-09-29T16:02:13;2.73;;;1.20;;
3131;SDS011;62090;52.330;9.104;2022-09-29T16:04:50;2.40;;;1.23;;
3131;SDS011;62090;52.330;9.104;2022-09-29T16:07:24;2.33;;;0.90;;
3131;SDS011;62090;52.330;9.104;2022-09-29T16:10:02;2.93;;;1.23;;